Time;durP1;ratioP1;P1;durP2;ratioP2;P2;SDS_P1;SDS_P2;PMS_P1;PMS_P2;Temp;Humidity;BMP_temperature;BMP_pressure;BME280_temperature;BME280_humidity;BME280_pressure;Samples;Min_cycle;Max_cycle;Signal;HPM_P1;HPM_P2
2021/12/08 00:01:54;;;;;;;6.45;2.67;;;;;;;;;;4988326;28;20031;-81
2021/12/08 00:04:20;;;;;;;7.28;2.60;;;;;;;;;;4974732;28;20035;-81
2021/12/08 00:06:46;;;;;;;7.50;3.03;;;;;;;;;;4975715;28;20115;-82
2021/12/08 00:14:29;;;;;;;6.45;2.83;;;;;;;;;;4973018;28;20038;-81
2021/12/08 00:16:55;;;;;;;6.97;2.70;;;;;;;;;;4972060;28;20027;-81
2021/12/08 00:19:22;;;;;;;5.00;2.90;;;;;;;;;;4973643;28;20068;-82
2021/12/08 00:21:48;;;;;;;6.88;3.33;;;;;;;;;;4970829;28;20084;-82
2021/12/08 00:24:14;;;;;;;5.95;2.95;;;;;;;;;;4979493;28;20026;-82
2021/12/08 00:26:40;;;;;;;9.90;3.42;;;;;;;;;;4987628;28;20026;-82
2021/12/08 00:29:06;;;;;;;9.40;3.30;;;;;;;;;;4978319;28;20106;-81
2021/12/08 00:31:33;;;;;;;5.63;2.85;;;;;;;;;;4982514;28;20023;-81
2021/12/08 00:33:59;;;;;;;5.30;3.10;;;;;;;;;;4973042;28;20058;-82
2021/12/08 00:36:31;;;;;;;8.82;3.15;;;;;;;;;;4981246;28;20033;-80
2021/12/08 00:38:57;;;;;;;6.72;3.40;;;;;;;;;;4979124;28;20037;-81
2021/12/08 00:41:23;;;;;;;11.38;2.90;;;;;;;;;;4972448;28;20027;-80
2021/12/08 00:43:49;;;;;;;9.15;3.45;;;;;;;;;;4972513;28;20031;-80
2021/12/08 00:46:15;;;;;;;6.50;3.17;;;;;;;;;;4971876;28;20057;-81
2021/12/08 00:48:48;;;;;;;5.43;3.47;;;;;;;;;;4972209;28;20402;-81
2021/12/08 00:51:14;;;;;;;6.47;3.00;;;;;;;;;;4972300;28;20486;-79
2021/12/08 00:53:40;;;;;;;6.10;3.28;;;;;;;;;;4972744;28;20038;-79
2021/12/08 00:56:06;;;;;;;8.32;3.50;;;;;;;;;;4972120;28;20031;-80
2021/12/08 00:58:31;;;;;;;7.10;3.53;;;;;;;;;;4972957;28;20621;-80
2021/12/08 01:00:57;;;;;;;6.40;3.78;;;;;;;;;;4987063;28;20041;-82
2021/12/08 01:03:24;;;;;;;4.13;3.17;;;;;;;;;;4983048;28;20109;-81
2021/12/08 01:05:55;;;;;;;7.43;3.85;;;;;;;;;;4991693;28;20105;-81
2021/12/08 01:08:23;;;;;;;5.05;3.53;;;;;;;;;;4991200;28;20058;-82
2021/12/08 01:10:50;;;;;;;8.35;4.30;;;;;;;;;;4991764;28;20037;-80
2021/12/08 01:13:17;;;;;;;9.23;4.30;;;;;;;;;;4973819;28;20050;-79
2021/12/08 01:15:46;;;;;;;8.32;3.97;;;;;;;;;;4992656;28;20550;-81
2021/12/08 01:18:12;;;;;;;7.18;4.45;;;;;;;;;;4990583;28;20031;-81
2021/12/08 01:20:39;;;;;;;7.75;4.28;;;;;;;;;;4988846;28;20035;-81
2021/12/08 01:23:05;;;;;;;6.75;4.20;;;;;;;;;;4991351;28;20037;-81
2021/12/08 01:25:31;;;;;;;12.48;4.38;;;;;;;;;;4989768;28;20030;-82
2021/12/08 01:27:57;;;;;;;5.63;4.10;;;;;;;;;;4990887;28;20042;-82
2021/12/08 01:30:23;;;;;;;8.57;4.72;;;;;;;;;;4985878;28;20050;-80
2021/12/08 01:32:49;;;;;;;8.60;4.15;;;;;;;;;;4971899;28;20452;-81
2021/12/08 01:35:15;;;;;;;7.00;4.07;;;;;;;;;;4973154;28;20025;-82
2021/12/08 01:37:41;;;;;;;7.47;4.40;;;;;;;;;;4974490;28;20023;-81
2021/12/08 01:40:09;;;;;;;6.07;4.43;;;;;;;;;;4973090;28;20113;-81
2021/12/08 01:42:42;;;;;;;7.20;3.75;;;;;;;;;;4974655;28;20056;-80
2021/12/08 01:47:53;;;;;;;9.57;4.30;;;;;;;;;;4974037;28;20045;-81
2021/12/08 01:50:19;;;;;;;9.07;4.22;;;;;;;;;;4975355;28;20023;-80
2021/12/08 01:52:45;;;;;;;13.20;5.15;;;;;;;;;;4974892;28;20479;-81
2021/12/08 01:55:12;;;;;;;11.15;4.35;;;;;;;;;;4989368;28;20172;-81
2021/12/08 01:57:38;;;;;;;9.27;4.78;;;;;;;;;;4974558;28;20106;-79
2021/12/08 02:00:07;;;;;;;6.18;4.30;;;;;;;;;;4974236;28;20128;-82
2021/12/08 02:02:33;;;;;;;8.27;4.32;;;;;;;;;;4972692;28;20041;-81
2021/12/08 02:04:59;;;;;;;9.02;5.13;;;;;;;;;;4988206;28;20122;-82
2021/12/08 02:07:25;;;;;;;9.23;5.07;;;;;;;;;;4993867;28;20027;-82
2021/12/08 02:09:51;;;;;;;6.43;4.53;;;;;;;;;;4991761;28;20030;-81
2021/12/08 02:12:17;;;;;;;7.30;4.85;;;;;;;;;;4986108;28;20011;-80
2021/12/08 02:14:43;;;;;;;6.65;4.88;;;;;;;;;;4974872;28;20531;-82
2021/12/08 02:17:10;;;;;;;6.07;4.28;;;;;;;;;;4975278;28;20035;-80
2021/12/08 02:19:37;;;;;;;9.88;4.80;;;;;;;;;;4972606;28;20099;-80
2021/12/08 02:22:03;;;;;;;8.48;4.72;;;;;;;;;;4973051;28;20023;-82
2021/12/08 02:24:29;;;;;;;8.02;5.15;;;;;;;;;;4974382;28;20030;-82
2021/12/08 02:26:57;;;;;;;9.05;5.13;;;;;;;;;;4973130;28;20122;-82
2021/12/08 02:29:34;;;;;;;12.60;5.32;;;;;;;;;;4974256;28;20027;-82
2021/12/08 02:32:09;;;;;;;7.60;4.93;;;;;;;;;;4972854;28;20030;-82
2021/12/08 02:48:19;;;;;;;11.68;4.57;;;;;;;;;;4973579;28;20073;-81
2021/12/08 02:50:45;;;;;;;7.18;4.70;;;;;;;;;;4973927;28;20030;-81
2021/12/08 02:53:13;;;;;;;6.78;5.07;;;;;;;;;;4976831;28;20033;-81
2021/12/08 02:55:41;;;;;;;10.18;5.30;;;;;;;;;;4981422;28;20061;-81
2021/12/08 02:58:07;;;;;;;8.65;5.95;;;;;;;;;;4974244;28;20027;-83
2021/12/08 03:00:36;;;;;;;8.48;5.18;;;;;;;;;;4974235;28;20106;-81
2021/12/08 03:03:03;;;;;;;11.73;5.90;;;;;;;;;;4974621;28;20456;-81
2021/12/08 03:05:29;;;;;;;8.20;5.25;;;;;;;;;;4973479;28;20031;-79
2021/12/08 03:07:55;;;;;;;9.60;5.10;;;;;;;;;;4974232;28;20073;-84
2021/12/08 03:10:24;;;;;;;8.88;5.60;;;;;;;;;;4974359;28;20106;-82
2021/12/08 03:12:50;;;;;;;6.25;5.15;;;;;;;;;;4974509;28;20023;-81
2021/12/08 03:15:17;;;;;;;6.82;4.63;;;;;;;;;;4972261;28;20080;-81
2021/12/08 03:17:43;;;;;;;11.68;5.97;;;;;;;;;;4973494;28;20492;-81
2021/12/08 03:20:11;;;;;;;11.18;6.47;;;;;;;;;;4973503;28;20031;-80
2021/12/08 03:22:43;;;;;;;8.32;5.70;;;;;;;;;;4986802;28;20034;-80
2021/12/08 03:25:13;;;;;;;10.52;5.93;;;;;;;;;;4992744;28;20022;-81
2021/12/08 03:27:47;;;;;;;9.53;5.40;;;;;;;;;;4992445;28;20042;-81
2021/12/08 03:30:24;;;;;;;7.18;5.43;;;;;;;;;;4993315;28;20027;-80
2021/12/08 03:32:55;;;;;;;7.40;5.47;;;;;;;;;;4987410;28;20434;-80
2021/12/08 03:35:21;;;;;;;13.13;5.65;;;;;;;;;;4973203;28;20386;-81
2021/12/08 03:37:47;;;;;;;9.10;5.45;;;;;;;;;;4972042;28;20539;-80
2021/12/08 03:40:15;;;;;;;9.38;6.13;;;;;;;;;;4973537;28;20049;-81
2021/12/08 03:42:42;;;;;;;12.30;5.70;;;;;;;;;;4972629;28;20026;-81
2021/12/08 03:45:11;;;;;;;8.88;6.18;;;;;;;;;;4972613;28;20387;-80
2021/12/08 03:47:39;;;;;;;10.18;5.90;;;;;;;;;;5086713;22;20502;-83
2021/12/08 03:50:07;;;;;;;12.60;5.90;;;;;;;;;;4974189;28;20033;-83
2021/12/08 03:52:33;;;;;;;9.85;5.80;;;;;;;;;;4973640;28;20082;-83
2021/12/08 03:54:59;;;;;;;7.63;5.35;;;;;;;;;;4975009;28;20037;-84
2021/12/08 03:57:25;;;;;;;11.93;6.50;;;;;;;;;;4974314;28;20035;-83
2021/12/08 03:59:52;;;;;;;9.15;6.13;;;;;;;;;;4973608;28;20057;-83
2021/12/08 04:02:18;;;;;;;9.02;5.65;;;;;;;;;;4972952;28;20089;-83
2021/12/08 04:04:47;;;;;;;9.88;5.65;;;;;;;;;;4972693;28;20031;-83
2021/12/08 04:07:15;;;;;;;9.63;5.70;;;;;;;;;;4974118;28;20031;-83
2021/12/08 04:09:43;;;;;;;9.27;5.18;;;;;;;;;;4974358;28;20015;-84
2021/12/08 04:12:10;;;;;;;9.52;5.53;;;;;;;;;;4973187;28;20023;-83
2021/12/08 04:14:38;;;;;;;13.57;6.65;;;;;;;;;;4988848;28;20023;-83
2021/12/08 04:17:04;;;;;;;13.90;6.38;;;;;;;;;;4973387;28;20035;-83
2021/12/08 04:19:30;;;;;;;9.45;5.88;;;;;;;;;;4971685;28;20034;-83
2021/12/08 04:21:59;;;;;;;8.60;5.60;;;;;;;;;;4974487;28;20027;-82
2021/12/08 04:24:26;;;;;;;14.50;6.25;;;;;;;;;;4971786;28;20027;-84
2021/12/08 04:26:55;;;;;;;16.98;6.57;;;;;;;;;;4972001;28;20540;-82
2021/12/08 04:29:23;;;;;;;10.32;5.50;;;;;;;;;;4973008;28;20055;-84
2021/12/08 04:31:51;;;;;;;9.50;5.38;;;;;;;;;;4973439;28;20026;-84
2021/12/08 04:34:22;;;;;;;12.65;5.57;;;;;;;;;;4973153;28;20033;-83
2021/12/08 04:36:49;;;;;;;11.05;6.25;;;;;;;;;;4972812;28;20038;-82
2021/12/08 04:39:26;;;;;;;10.63;5.95;;;;;;;;;;4971419;28;20052;-83
2021/12/08 04:41:59;;;;;;;13.32;6.03;;;;;;;;;;4971393;28;20031;-83
2021/12/08 04:44:42;;;;;;;10.43;5.35;;;;;;;;;;4986710;28;20045;-83
2021/12/08 04:52:52;;;;;;;9.00;5.15;;;;;;;;;;4970278;28;20041;-82
2021/12/08 05:01:19;;;;;;;10.07;4.45;;;;;;;;;;5008396;28;20101;-84
2021/12/08 05:06:50;;;;;;;7.75;4.97;;;;;;;;;;5000592;28;20030;-83
2021/12/08 05:09:23;;;;;;;10.18;5.20;;;;;;;;;;4998772;28;20031;-85
2021/12/08 05:11:51;;;;;;;12.10;5.00;;;;;;;;;;4996594;28;20047;-84
2021/12/08 05:14:20;;;;;;;8.93;4.78;;;;;;;;;;4982049;28;20054;-84
2021/12/08 05:16:48;;;;;;;8.90;4.72;;;;;;;;;;4981967;28;20046;-84
2021/12/08 05:19:21;;;;;;;8.13;5.15;;;;;;;;;;4983134;28;20033;-85
2021/12/08 05:21:50;;;;;;;10.40;4.60;;;;;;;;;;4978754;28;20042;-84
2021/12/08 05:24:19;;;;;;;8.25;4.25;;;;;;;;;;4979189;28;20074;-84
2021/12/08 05:26:55;;;;;;;8.18;4.43;;;;;;;;;;4979150;28;20615;-84
2021/12/08 05:29:27;;;;;;;8.88;4.10;;;;;;;;;;4977040;28;20027;-83
2021/12/08 05:31:55;;;;;;;7.30;4.32;;;;;;;;;;4977446;28;20031;-82
2021/12/08 05:34:21;;;;;;;7.18;4.53;;;;;;;;;;4977826;28;20015;-81
2021/12/08 05:36:47;;;;;;;7.57;4.18;;;;;;;;;;4977916;28;20023;-84
2021/12/08 05:39:19;;;;;;;6.43;4.22;;;;;;;;;;4979442;28;20031;-83
2021/12/08 05:41:46;;;;;;;11.15;4.30;;;;;;;;;;4978018;28;20361;-82
2021/12/08 05:44:12;;;;;;;7.50;4.18;;;;;;;;;;4977807;28;20034;-84
2021/12/08 05:46:42;;;;;;;14.77;3.97;;;;;;;;;;4976701;28;20054;-84
2021/12/08 05:49:08;;;;;;;8.90;4.63;;;;;;;;;;4975841;28;20030;-84
2021/12/08 05:51:35;;;;;;;9.40;4.43;;;;;;;;;;4977873;28;20023;-83
2021/12/08 05:54:04;;;;;;;11.35;5.15;;;;;;;;;;4976153;28;20110;-83
2021/12/08 05:56:31;;;;;;;12.18;4.93;;;;;;;;;;4978078;28;20358;-83
2021/12/08 05:58:58;;;;;;;8.95;3.83;;;;;;;;;;4979772;28;20101;-83
2021/12/08 06:01:51;;;;;;;8.93;4.70;;;;;;;;;;4994790;28;20026;-84
2021/12/08 06:04:18;;;;;;;8.85;4.10;;;;;;;;;;4982605;28;20126;-83
2021/12/08 06:06:45;;;;;;;9.40;4.57;;;;;;;;;;4981578;28;20088;-82
2021/12/08 06:09:12;;;;;;;7.10;4.20;;;;;;;;;;4981893;28;20399;-81
2021/12/08 06:11:39;;;;;;;9.63;4.50;;;;;;;;;;4979785;28;20038;-82
2021/12/08 06:14:07;;;;;;;6.57;4.03;;;;;;;;;;4981205;28;20023;-83
2021/12/08 06:16:33;;;;;;;13.57;4.97;;;;;;;;;;4982857;28;20027;-83
2021/12/08 06:19:00;;;;;;;8.65;4.20;;;;;;;;;;4980052;28;20035;-82
2021/12/08 06:21:27;;;;;;;8.18;4.43;;;;;;;;;;4979770;28;20027;-83
2021/12/08 06:23:53;;;;;;;6.75;4.25;;;;;;;;;;4981217;28;20390;-83
2021/12/08 06:26:21;;;;;;;16.15;5.53;;;;;;;;;;4981280;28;20397;-82
2021/12/08 06:28:47;;;;;;;9.57;5.22;;;;;;;;;;4978932;28;20346;-83
2021/12/08 06:31:14;;;;;;;12.05;4.75;;;;;;;;;;4981263;28;20027;-84
2021/12/08 06:33:40;;;;;;;8.13;4.28;;;;;;;;;;4980672;28;20027;-84
2021/12/08 06:36:20;;;;;;;9.27;4.30;;;;;;;;;;4980209;28;20019;-86
2021/12/08 06:38:46;;;;;;;10.10;4.60;;;;;;;;;;4979229;28;20027;-85
2021/12/08 06:41:21;;;;;;;6.78;4.15;;;;;;;;;;4976611;28;20027;-84
2021/12/08 06:43:49;;;;;;;11.93;4.95;;;;;;;;;;4973875;28;20394;-86
2021/12/08 06:46:16;;;;;;;13.00;4.63;;;;;;;;;;4974994;28;20042;-85
2021/12/08 06:48:47;;;;;;;10.98;4.70;;;;;;;;;;4980541;28;20102;-85
2021/12/08 06:51:16;;;;;;;10.45;4.03;;;;;;;;;;4979376;28;20027;-85
2021/12/08 06:53:44;;;;;;;12.95;5.15;;;;;;;;;;4979805;28;20042;-85
2021/12/08 06:56:13;;;;;;;9.43;4.60;;;;;;;;;;4996385;28;20027;-85
2021/12/08 06:58:40;;;;;;;9.65;4.50;;;;;;;;;;4989408;28;20025;-86
2021/12/08 07:01:33;;;;;;;8.07;5.13;;;;;;;;;;4990053;28;20031;-85
2021/12/08 07:04:24;;;;;;;11.23;4.65;;;;;;;;;;4987316;28;20031;-84
2021/12/08 07:07:00;;;;;;;;;;;;;;;;;;4989296;28;20042;-83
2021/12/08 07:09:37;;;;;;;7.63;3.35;;;;;;;;;;4989034;28;20009;-85
2021/12/08 07:12:06;;;;;;;7.50;3.45;;;;;;;;;;4989849;28;20543;-84
2021/12/08 07:14:33;;;;;;;8.15;3.90;;;;;;;;;;4990634;28;20027;-85
2021/12/08 07:17:05;;;;;;;8.93;3.95;;;;;;;;;;4990278;28;20025;-84
2021/12/08 07:19:43;;;;;;;8.90;3.70;;;;;;;;;;4983923;28;20035;-83
2021/12/08 07:22:13;;;;;;;7.55;4.07;;;;;;;;;;4983720;28;20027;-86
2021/12/08 07:24:41;;;;;;;11.17;4.20;;;;;;;;;;4984903;28;20031;-85
2021/12/08 07:27:09;;;;;;;11.30;4.40;;;;;;;;;;4984840;28;20038;-85
2021/12/08 07:29:39;;;;;;;11.40;4.38;;;;;;;;;;4983249;28;20053;-85
2021/12/08 07:32:24;;;;;;;11.27;3.78;;;;;;;;;;4984594;28;20050;-85
2021/12/08 07:34:52;;;;;;;5.85;2.75;;;;;;;;;;5000238;28;20033;-85
2021/12/08 07:37:20;;;;;;;7.25;2.78;;;;;;;;;;4984562;28;20037;-85
2021/12/08 07:39:49;;;;;;;4.85;2.88;;;;;;;;;;4990955;28;20042;-84
2021/12/08 07:42:18;;;;;;;11.38;3.45;;;;;;;;;;4992185;28;20026;-84
2021/12/08 07:44:46;;;;;;;12.43;3.03;;;;;;;;;;4987332;28;20022;-84
2021/12/08 07:47:13;;;;;;;8.93;3.72;;;;;;;;;;4983858;28;20074;-86
2021/12/08 07:49:44;;;;;;;9.18;3.00;;;;;;;;;;4984201;28;20525;-83
2021/12/08 07:52:10;;;;;;;8.75;3.58;;;;;;;;;;4984063;28;20051;-87
2021/12/08 07:54:36;;;;;;;11.52;3.00;;;;;;;;;;4980969;28;20413;-85
2021/12/08 07:57:06;;;;;;;10.07;3.20;;;;;;;;;;4978534;28;20037;-85
2021/12/08 07:59:33;;;;;;;10.80;3.87;;;;;;;;;;4979014;28;20042;-86
2021/12/08 08:02:06;;;;;;;7.40;3.25;;;;;;;;;;4978589;28;20033;-86
2021/12/08 08:04:33;;;;;;;8.45;3.55;;;;;;;;;;4977303;28;20062;-85
2021/12/08 08:07:00;;;;;;;6.93;3.38;;;;;;;;;;4978997;28;20027;-84
2021/12/08 08:09:29;;;;;;;11.40;3.72;;;;;;;;;;4978351;28;20030;-82
2021/12/08 08:11:58;;;;;;;18.77;4.65;;;;;;;;;;4977978;28;20050;-84
2021/12/08 08:14:27;;;;;;;10.15;4.63;;;;;;;;;;4977668;28;20019;-86
2021/12/08 08:16:56;;;;;;;10.93;3.65;;;;;;;;;;4993924;28;20030;-85
2021/12/08 08:19:27;;;;;;;13.43;4.78;;;;;;;;;;4979816;28;20027;-83
2021/12/08 08:21:56;;;;;;;11.40;3.42;;;;;;;;;;4994657;28;20470;-85
2021/12/08 08:24:22;;;;;;;7.68;3.28;;;;;;;;;;4979983;28;20038;-84
2021/12/08 08:26:49;;;;;;;9.65;3.88;;;;;;;;;;4978705;28;20031;-85
2021/12/08 08:29:16;;;;;;;9.18;3.35;;;;;;;;;;4978915;28;20072;-86
2021/12/08 08:31:51;;;;;;;12.90;3.47;;;;;;;;;;4978871;28;20489;-84
2021/12/08 08:34:17;;;;;;;6.85;3.45;;;;;;;;;;4978606;28;20058;-85
2021/12/08 08:36:46;;;;;;;6.43;3.35;;;;;;;;;;4979692;28;20501;-85
2021/12/08 08:39:32;;;;;;;10.27;3.13;;;;;;;;;;4979675;28;20057;-84
2021/12/08 08:42:01;;;;;;;11.98;3.28;;;;;;;;;;4979868;28;20099;-85
2021/12/08 08:44:33;;;;;;;8.63;3.10;;;;;;;;;;4981743;28;20551;-85
2021/12/08 08:47:05;;;;;;;15.93;3.55;;;;;;;;;;4982203;28;20118;-85
2021/12/08 08:49:36;;;;;;;7.95;3.40;;;;;;;;;;4982210;28;20070;-84
2021/12/08 08:52:02;;;;;;;9.50;3.42;;;;;;;;;;4981504;28;20015;-84
2021/12/08 08:54:31;;;;;;;14.90;3.95;;;;;;;;;;4981878;28;20102;-85
2021/12/08 08:57:00;;;;;;;14.90;3.35;;;;;;;;;;4981548;28;20042;-84
2021/12/08 08:59:31;;;;;;;8.07;2.85;;;;;;;;;;4983209;28;20035;-84
2021/12/08 09:01:59;;;;;;;7.47;3.10;;;;;;;;;;4983730;28;20072;-85
2021/12/08 09:04:32;;;;;;;9.48;2.90;;;;;;;;;;4983294;28;20475;-84
2021/12/08 09:07:02;;;;;;;6.88;3.25;;;;;;;;;;4978587;28;20031;-85
2021/12/08 09:09:30;;;;;;;7.55;3.03;;;;;;;;;;4978867;28;20500;-85
2021/12/08 09:12:02;;;;;;;7.50;3.05;;;;;;;;;;4978112;28;20098;-84
2021/12/08 09:14:30;;;;;;;9.65;3.53;;;;;;;;;;4980905;28;20034;-84
2021/12/08 09:17:18;;;;;;;11.95;3.60;;;;;;;;;;4979390;28;20526;-85
2021/12/08 09:19:48;;;;;;;7.82;2.90;;;;;;;;;;4979830;28;20031;-85
2021/12/08 09:22:25;;;;;;;13.20;3.55;;;;;;;;;;4981660;28;20030;-84
2021/12/08 09:25:12;;;;;;;11.68;3.60;;;;;;;;;;4978531;28;20401;-85
2021/12/08 09:27:42;;;;;;;10.15;3.33;;;;;;;;;;4984356;28;20026;-85
2021/12/08 09:30:11;;;;;;;9.27;2.78;;;;;;;;;;4996100;28;20031;-84
2021/12/08 09:32:42;;;;;;;11.05;3.00;;;;;;;;;;4992803;28;20057;-86
2021/12/08 09:35:22;;;;;;;10.38;3.08;;;;;;;;;;4978852;28;20027;-86
2021/12/08 09:37:52;;;;;;;9.67;3.60;;;;;;;;;;4973511;28;20109;-85
2021/12/08 09:40:19;;;;;;;12.48;3.78;;;;;;;;;;4972878;28;20019;-85
2021/12/08 09:46:03;;;;;;;8.65;3.38;;;;;;;;;;4970359;28;20019;-84
2021/12/08 09:48:29;;;;;;;5.95;3.33;;;;;;;;;;4996590;22;20049;-83
2021/12/08 09:51:01;;;;;;;12.68;3.35;;;;;;;;;;4975900;28;20031;-82
2021/12/08 09:53:53;;;;;;;11.65;3.70;;;;;;;;;;4977800;28;20023;-83
2021/12/08 09:56:20;;;;;;;11.80;3.17;;;;;;;;;;4979816;28;20043;-87
2021/12/08 09:58:46;;;;;;;8.82;3.30;;;;;;;;;;4990249;28;20051;-86
2021/12/08 10:01:17;;;;;;;5.40;2.90;;;;;;;;;;4985354;28;20011;-86
2021/12/08 10:03:43;;;;;;;11.02;3.03;;;;;;;;;;4974534;28;20111;-85
2021/12/08 10:06:13;;;;;;;15.00;3.35;;;;;;;;;;4964298;28;20027;-84
2021/12/08 10:08:41;;;;;;;8.98;3.08;;;;;;;;;;4978596;28;20090;-84
2021/12/08 10:11:10;;;;;;;16.27;3.90;;;;;;;;;;4966938;28;20031;-84
2021/12/08 10:13:36;;;;;;;11.68;2.83;;;;;;;;;;4976992;28;20019;-84
2021/12/08 10:16:05;;;;;;;11.23;3.28;;;;;;;;;;4978108;28;20030;-83
2021/12/08 10:18:33;;;;;;;16.17;4.00;;;;;;;;;;4974613;28;20047;-84
2021/12/08 10:21:11;;;;;;;7.60;3.03;;;;;;;;;;4957597;29;20030;-84
2021/12/08 10:23:38;;;;;;;9.32;2.75;;;;;;;;;;4956852;29;20027;-85
2021/12/08 10:26:10;;;;;;;7.57;3.28;;;;;;;;;;4957464;29;20057;-85
2021/12/08 10:28:45;;;;;;;14.98;3.53;;;;;;;;;;4957163;28;20541;-85
2021/12/08 10:31:14;;;;;;;8.27;3.35;;;;;;;;;;4958283;29;20106;-85
2021/12/08 10:36:45;;;;;;;;;;;;;;;;;;4966443;28;20382;-83
2021/12/08 10:39:07;;;;;;;11.48;2.75;;;;;;;;;;4980057;28;19907;-85
2021/12/08 10:41:43;;;;;;;7.50;3.35;;;;;;;;;;4980507;28;20045;-84
2021/12/08 10:44:20;;;;;;;10.07;3.03;;;;;;;;;;4978301;28;20033;-84
2021/12/08 10:46:46;;;;;;;12.30;3.53;;;;;;;;;;4978013;28;20023;-84
2021/12/08 10:49:25;;;;;;;11.07;3.42;;;;;;;;;;4978813;28;20107;-84
2021/12/08 10:54:39;;;;;;;6.50;2.47;;;;;;;;;;4958041;29;20062;-84
2021/12/08 10:57:19;;;;;;;11.98;2.97;;;;;;;;;;4958913;29;20467;-84
2021/12/08 11:00:18;;;;;;;9.05;2.60;;;;;;;;;;4958482;29;20027;-83
2021/12/08 11:02:44;;;;;;;16.17;2.97;;;;;;;;;;4956283;29;20122;-83
2021/12/08 11:05:25;;;;;;;13.27;2.83;;;;;;;;;;4956772;28;20508;-83
2021/12/08 11:08:09;;;;;;;10.50;3.05;;;;;;;;;;4956845;29;20024;-82
2021/12/08 11:10:37;;;;;;;11.93;3.58;;;;;;;;;;4966108;28;20076;-83
2021/12/08 11:13:03;;;;;;;14.50;3.67;;;;;;;;;;4961266;28;20020;-83
2021/12/08 11:15:30;;;;;;;14.00;4.55;;;;;;;;;;4957153;29;20383;-83
2021/12/08 11:18:10;;;;;;;22.25;4.13;;;;;;;;;;4960486;29;20019;-83
2021/12/08 11:20:47;;;;;;;18.58;3.65;;;;;;;;;;4969493;29;20083;-83
2021/12/08 11:23:16;;;;;;;17.67;3.47;;;;;;;;;;4959192;29;20394;-83
2021/12/08 11:25:45;;;;;;;10.88;3.92;;;;;;;;;;4959630;29;20028;-83
2021/12/08 11:28:20;;;;;;;8.88;3.47;;;;;;;;;;4958737;29;20053;-83
2021/12/08 11:30:46;;;;;;;11.77;3.28;;;;;;;;;;4957447;29;20019;-83
2021/12/08 11:33:16;;;;;;;13.85;3.00;;;;;;;;;;4958479;29;20032;-84
2021/12/08 11:35:42;;;;;;;10.05;2.70;;;;;;;;;;4957784;29;20110;-83
2021/12/08 11:38:08;;;;;;;15.52;3.53;;;;;;;;;;4958243;29;20077;-83
2021/12/08 11:40:36;;;;;;;17.63;3.28;;;;;;;;;;4957085;29;20031;-83
2021/12/08 11:43:02;;;;;;;13.05;2.58;;;;;;;;;;4956685;29;20065;-83
2021/12/08 11:45:36;;;;;;;15.25;3.25;;;;;;;;;;4956103;29;20085;-83
2021/12/08 11:48:02;;;;;;;12.07;2.75;;;;;;;;;;4955120;29;20035;-83
2021/12/08 11:50:28;;;;;;;13.85;2.58;;;;;;;;;;4961769;28;20382;-83
2021/12/08 11:52:54;;;;;;;9.68;2.97;;;;;;;;;;4975615;28;20035;-83
2021/12/08 11:55:25;;;;;;;14.43;3.72;;;;;;;;;;4975793;28;20046;-82
2021/12/08 11:57:57;;;;;;;23.15;3.47;;;;;;;;;;4975448;28;20087;-83
2021/12/08 12:00:23;;;;;;;13.43;2.92;;;;;;;;;;4974482;28;20077;-83
2021/12/08 12:02:54;;;;;;;16.90;3.30;;;;;;;;;;4975185;28;20038;-83
2021/12/08 12:05:20;;;;;;;;;;;;;;;;;;4973079;28;20417;-83
2021/12/08 12:07:46;;;;;;;10.38;3.22;;;;;;;;;;4975117;28;19913;-83
2021/12/08 12:10:14;;;;;;;13.55;2.88;;;;;;;;;;4969251;28;20055;-83
2021/12/08 12:12:41;;;;;;;13.75;2.88;;;;;;;;;;4964406;28;20027;-83
2021/12/08 12:15:09;;;;;;;10.65;2.10;;;;;;;;;;4972270;28;20114;-83
2021/12/08 12:17:35;;;;;;;10.00;2.55;;;;;;;;;;4972139;28;20082;-83
2021/12/08 12:20:01;;;;;;;14.35;2.47;;;;;;;;;;4973891;28;20035;-85
2021/12/08 12:22:39;;;;;;;15.88;2.53;;;;;;;;;;4974099;28;20097;-83
2021/12/08 12:25:25;;;;;;;10.00;2.33;;;;;;;;;;4972733;28;20058;-83
2021/12/08 12:27:54;;;;;;;10.43;2.75;;;;;;;;;;4974522;28;20087;-83
2021/12/08 12:30:37;;;;;;;9.05;2.75;;;;;;;;;;4973501;28;20033;-82
2021/12/08 12:33:14;;;;;;;17.52;2.72;;;;;;;;;;4973880;28;20030;-83
2021/12/08 12:35:47;;;;;;;11.93;3.25;;;;;;;;;;4972662;28;20439;-83
2021/12/08 12:38:13;;;;;;;9.65;2.13;;;;;;;;;;4971060;28;20486;-82
2021/12/08 12:40:43;;;;;;;11.65;2.50;;;;;;;;;;4968889;28;20536;-84
2021/12/08 12:43:09;;;;;;;12.70;2.55;;;;;;;;;;4973391;28;20401;-82
2021/12/08 12:45:44;;;;;;;10.50;2.50;;;;;;;;;;4972401;28;20118;-82
2021/12/08 12:48:13;;;;;;;12.73;3.13;;;;;;;;;;4974177;28;20113;-82
2021/12/08 12:50:58;;;;;;;16.63;4.20;;;;;;;;;;4975548;28;20038;-82
2021/12/08 12:53:31;;;;;;;15.07;2.78;;;;;;;;;;4973450;28;20023;-82
2021/12/08 12:55:57;;;;;;;17.15;4.15;;;;;;;;;;4974253;28;20094;-82
2021/12/08 12:58:23;;;;;;;10.00;2.72;;;;;;;;;;4974510;28;20058;-82
2021/12/08 13:00:53;;;;;;;14.00;2.78;;;;;;;;;;4974900;28;20043;-83
2021/12/08 13:06:39;;;;;;;11.38;2.85;;;;;;;;;;4937052;29;20093;-84
2021/12/08 13:09:24;;;;;;;7.68;2.60;;;;;;;;;;4935935;29;20043;-84
2021/12/08 13:12:10;;;;;;;12.15;2.47;;;;;;;;;;4967648;28;20066;-84
2021/12/08 13:14:56;;;;;;;12.93;2.53;;;;;;;;;;4955225;29;20035;-81
2021/12/08 13:17:29;;;;;;;15.55;2.97;;;;;;;;;;4953272;29;20027;-82
2021/12/08 13:19:57;;;;;;;11.48;2.53;;;;;;;;;;4957651;29;20043;-83
2021/12/08 13:22:47;;;;;;;19.88;2.90;;;;;;;;;;4957533;29;20027;-82
2021/12/08 13:25:32;;;;;;;15.52;2.70;;;;;;;;;;4954811;29;20498;-82
2021/12/08 13:28:17;;;;;;;14.88;2.88;;;;;;;;;;4976477;28;20031;-84
2021/12/08 13:30:45;;;;;;;11.45;2.90;;;;;;;;;;4971020;28;20164;-82
2021/12/08 13:33:25;;;;;;;10.68;2.40;;;;;;;;;;4972240;28;20034;-82
2021/12/08 13:35:53;;;;;;;20.73;2.72;;;;;;;;;;4960724;29;20023;-82
2021/12/08 13:38:19;;;;;;;19.15;2.63;;;;;;;;;;4974265;28;20053;-82
2021/12/08 13:40:47;;;;;;;11.70;3.17;;;;;;;;;;4978585;28;20158;-82
2021/12/08 13:43:31;;;;;;;8.32;2.30;;;;;;;;;;4978560;28;20023;-83
2021/12/08 13:45:58;;;;;;;11.93;2.17;;;;;;;;;;4971046;28;20020;-82
2021/12/08 13:48:24;;;;;;;14.95;3.03;;;;;;;;;;4958053;29;20035;-82
2021/12/08 13:50:50;;;;;;;19.42;3.78;;;;;;;;;;4969944;28;20049;-83
2021/12/08 13:53:16;;;;;;;14.95;2.70;;;;;;;;;;4975976;28;20027;-82
2021/12/08 13:55:44;;;;;;;18.10;3.10;;;;;;;;;;4977984;28;20071;-82
2021/12/08 13:58:14;;;;;;;10.20;2.53;;;;;;;;;;4976895;28;20023;-83
2021/12/08 14:00:44;;;;;;;18.80;3.40;;;;;;;;;;4975330;28;20031;-83
2021/12/08 14:03:15;;;;;;;16.42;4.30;;;;;;;;;;4969354;28;20478;-83
2021/12/08 14:05:45;;;;;;;15.50;4.07;;;;;;;;;;4957598;29;20023;-83
2021/12/08 14:08:11;;;;;;;18.88;4.07;;;;;;;;;;4955919;29;20027;-83
2021/12/08 14:10:41;;;;;;;22.65;4.18;;;;;;;;;;4957321;29;20034;-82
2021/12/08 14:13:10;;;;;;;17.55;4.20;;;;;;;;;;4970535;28;20057;-82
2021/12/08 14:15:39;;;;;;;15.70;3.95;;;;;;;;;;4975616;28;20023;-84
2021/12/08 14:18:14;;;;;;;15.65;3.58;;;;;;;;;;4975450;28;20458;-82
2021/12/08 14:20:42;;;;;;;16.30;3.72;;;;;;;;;;4976297;28;20082;-83
2021/12/08 14:23:08;;;;;;;18.75;3.53;;;;;;;;;;4973394;28;20229;-82
2021/12/08 14:25:38;;;;;;;17.95;3.17;;;;;;;;;;4961244;28;20023;-84
2021/12/08 14:28:23;;;;;;;25.60;3.90;;;;;;;;;;4966452;28;20023;-83
2021/12/08 14:30:49;;;;;;;14.25;2.83;;;;;;;;;;4963704;28;20038;-84
2021/12/08 14:33:22;;;;;;;14.75;3.05;;;;;;;;;;4971482;28;20083;-84
2021/12/08 14:35:58;;;;;;;12.18;2.88;;;;;;;;;;4976266;28;20504;-83
2021/12/08 14:38:24;;;;;;;11.60;3.35;;;;;;;;;;4975123;28;20030;-83
2021/12/08 14:40:50;;;;;;;10.60;3.00;;;;;;;;;;4974451;28;20027;-83
2021/12/08 14:43:26;;;;;;;16.00;3.00;;;;;;;;;;4975946;28;20074;-83
2021/12/08 14:45:52;;;;;;;15.25;3.05;;;;;;;;;;4974944;28;20034;-82
2021/12/08 14:48:18;;;;;;;13.13;2.97;;;;;;;;;;5033228;28;20037;-83
2021/12/08 14:50:44;;;;;;;17.02;2.70;;;;;;;;;;5003805;28;20028;-84
2021/12/08 14:53:14;;;;;;;13.38;3.22;;;;;;;;;;4956508;29;20030;-84
2021/12/08 14:55:41;;;;;;;11.40;2.83;;;;;;;;;;4955976;29;20055;-85
2021/12/08 14:58:11;;;;;;;17.65;3.03;;;;;;;;;;4964704;29;20046;-83
2021/12/08 15:00:39;;;;;;;24.27;3.65;;;;;;;;;;4967956;29;20134;-84
2021/12/08 15:03:14;;;;;;;16.70;3.22;;;;;;;;;;4964526;29;20031;-84
2021/12/08 15:05:43;;;;;;;18.67;3.17;;;;;;;;;;4960500;29;20429;-84
2021/12/08 15:08:11;;;;;;;15.05;2.80;;;;;;;;;;4960188;29;20058;-84
2021/12/08 15:10:37;;;;;;;17.98;3.22;;;;;;;;;;4958345;29;20027;-85
2021/12/08 15:13:24;;;;;;;12.05;2.92;;;;;;;;;;4972764;28;20050;-84
2021/12/08 15:15:56;;;;;;;13.40;3.42;;;;;;;;;;5058015;28;20417;-83
2021/12/08 15:18:24;;;;;;;15.68;3.28;;;;;;;;;;4974558;28;20027;-85
2021/12/08 15:20:58;;;;;;;11.45;3.38;;;;;;;;;;4973040;28;20149;-82
2021/12/08 15:23:38;;;;;;;16.02;3.38;;;;;;;;;;4974398;28;20035;-83
2021/12/08 15:26:05;;;;;;;19.00;3.50;;;;;;;;;;4975613;28;20088;-84
2021/12/08 15:28:33;;;;;;;15.23;3.80;;;;;;;;;;4974172;28;20031;-84
2021/12/08 15:30:59;;;;;;;14.23;4.07;;;;;;;;;;4974242;28;20046;-84
2021/12/08 15:33:26;;;;;;;22.88;4.47;;;;;;;;;;4976792;28;20053;-83
2021/12/08 15:35:53;;;;;;;17.60;4.82;;;;;;;;;;4976995;28;20050;-83
2021/12/08 15:38:19;;;;;;;17.45;4.50;;;;;;;;;;4976236;28;20046;-83
2021/12/08 15:40:52;;;;;;;33.10;12.98;;;;;;;;;;4968536;28;20031;-83